Time;durP1;ratioP1;P1;durP2;ratioP2;P2;SDS_P1;SDS_P2;PMS_P1;PMS_P2;Temp;Humidity;BMP_temperature;BMP_pressure;BME280_temperature;BME280_humidity;BME280_pressure;Samples;Min_cycle;Max_cycle;Signal;HPM_P1;HPM_P2
2022/02/08 00:02:14;;;;;;;4.38;2.35;;;22.90;56.10;;;;;;4992722;28;20226;-49
2022/02/08 00:04:48;;;;;;;2.75;1.80;;;22.90;56.10;;;;;;4992880;28;20278;-48
2022/02/08 00:07:18;;;;;;;2.75;1.92;;;23.00;56.10;;;;;;4991867;28;20197;-53
2022/02/08 00:09:49;;;;;;;2.75;2.08;;;23.00;56.10;;;;;;4992461;28;20194;-56
2022/02/08 00:12:20;;;;;;;2.03;1.65;;;23.00;56.00;;;;;;4992438;28;20634;-54
2022/02/08 00:14:52;;;;;;;4.88;2.42;;;23.00;55.90;;;;;;4992525;28;20252;-57
2022/02/08 00:17:22;;;;;;;2.95;1.90;;;23.10;55.90;;;;;;4989868;28;20337;-53
2022/02/08 00:19:55;;;;;;;3.20;2.10;;;23.10;55.90;;;;;;4991340;28;20271;-56
2022/02/08 00:22:25;;;;;;;3.88;2.00;;;23.10;55.80;;;;;;4991932;28;20634;-58
2022/02/08 00:24:56;;;;;;;3.05;1.95;;;23.10;55.80;;;;;;4991345;28;20256;-55
2022/02/08 00:27:26;;;;;;;2.85;1.70;;;23.10;55.80;;;;;;4991784;28;20198;-57
2022/02/08 00:29:59;;;;;;;2.70;1.88;;;23.10;55.70;;;;;;4992090;28;20681;-58
2022/02/08 00:32:29;;;;;;;2.20;1.90;;;23.20;55.70;;;;;;4991525;28;20272;-58
2022/02/08 00:35:02;;;;;;;2.65;1.83;;;23.20;55.70;;;;;;4991446;28;20272;-58
2022/02/08 00:37:32;;;;;;;1.90;1.33;;;23.20;55.70;;;;;;4989534;28;20211;-49
2022/02/08 00:40:03;;;;;;;1.42;1.27;;;23.30;55.70;;;;;;4991258;28;20550;-56
2022/02/08 00:42:35;;;;;;;1.92;1.60;;;23.30;55.60;;;;;;4991826;28;20256;-52
2022/02/08 00:45:19;;;;;;;3.53;1.70;;;23.30;55.60;;;;;;4992133;28;20244;-53
2022/02/08 00:47:55;;;;;;;3.38;1.80;;;23.30;55.60;;;;;;4992077;28;20650;-56
2022/02/08 00:50:29;;;;;;;2.60;1.48;;;23.40;55.50;;;;;;4991848;28;20223;-52
2022/02/08 00:52:59;;;;;;;4.72;1.52;;;23.40;55.50;;;;;;4991461;28;20260;-55
2022/02/08 00:55:30;;;;;;;2.03;1.60;;;23.40;55.50;;;;;;4991350;28;20197;-60
2022/02/08 00:58:00;;;;;;;3.22;1.75;;;23.40;55.40;;;;;;4991018;28;20228;-57
2022/02/08 01:00:31;;;;;;;1.83;1.30;;;23.40;55.40;;;;;;4992267;28;20260;-42
2022/02/08 01:03:02;;;;;;;3.47;1.23;;;23.50;55.40;;;;;;4991060;28;20697;-42
2022/02/08 01:05:37;;;;;;;1.77;1.05;;;23.50;55.60;;;;;;4991647;28;20685;-45
2022/02/08 01:08:08;;;;;;;1.63;1.13;;;23.50;55.50;;;;;;4990402;28;20193;-57
2022/02/08 01:10:40;;;;;;;2.22;1.30;;;23.60;55.50;;;;;;4991056;28;20256;-60
2022/02/08 01:13:12;;;;;;;1.33;1.00;;;23.60;55.50;;;;;;4989393;28;20684;-52
2022/02/08 01:15:42;;;;;;;2.10;1.08;;;23.60;55.60;;;;;;4990457;28;20201;-53
2022/02/08 01:18:13;;;;;;;2.00;1.20;;;23.70;55.70;;;;;;4990999;28;20201;-59
2022/02/08 01:20:45;;;;;;;1.60;1.00;;;23.70;55.70;;;;;;4991004;28;20190;-60
2022/02/08 01:23:16;;;;;;;1.48;0.90;;;23.70;55.60;;;;;;4991413;28;20228;-60
2022/02/08 01:25:49;;;;;;;1.65;0.90;;;23.80;55.60;;;;;;4991553;28;20260;-60
2022/02/08 01:28:30;;;;;;;3.03;1.00;;;23.80;55.60;;;;;;4990881;28;20220;-59
2022/02/08 01:31:04;;;;;;;1.42;1.02;;;23.80;55.50;;;;;;4990934;28;20810;-57
2022/02/08 01:33:53;;;;;;;1.58;1.00;;;23.80;55.40;;;;;;4990934;28;20304;-51
2022/02/08 01:36:37;;;;;;;1.98;1.10;;;23.90;55.90;;;;;;4990371;28;20193;-50
2022/02/08 01:39:16;;;;;;;1.83;1.10;;;23.90;55.30;;;;;;4990876;28;20194;-50
2022/02/08 01:44:57;;;;;;;1.85;0.88;;;24.00;55.10;;;;;;4991179;28;20221;-55
2022/02/08 01:47:30;;;;;;;1.15;0.90;;;24.00;54.90;;;;;;4989836;28;20283;-46
2022/02/08 01:50:10;;;;;;;1.67;1.10;;;24.00;54.80;;;;;;4990488;28;20198;-57
2022/02/08 01:52:44;;;;;;;1.52;0.93;;;24.00;54.70;;;;;;4990680;28;20228;-53
2022/02/08 01:55:17;;;;;;;2.17;1.33;;;24.10;54.60;;;;;;4990507;28;20257;-50
2022/02/08 01:57:48;;;;;;;2.58;1.10;;;24.10;54.50;;;;;;4990526;28;20889;-57
2022/02/08 02:00:21;;;;;;;2.78;1.20;;;24.10;54.50;;;;;;4990285;28;20255;-57
2022/02/08 02:02:51;;;;;;;1.65;1.10;;;24.10;54.50;;;;;;4989885;28;20225;-57
2022/02/08 02:05:22;;;;;;;1.63;0.80;;;24.20;54.60;;;;;;4989686;28;20237;-52
2022/02/08 02:07:55;;;;;;;1.13;0.95;;;24.10;54.50;;;;;;4990683;28;20253;-58
2022/02/08 02:10:25;;;;;;;1.10;0.95;;;24.20;54.40;;;;;;4990000;28;20201;-59
2022/02/08 02:12:58;;;;;;;2.03;0.93;;;24.20;54.30;;;;;;4989772;28;20225;-60
2022/02/08 02:15:32;;;;;;;2.22;1.13;;;24.20;54.30;;;;;;4990295;28;20719;-60
2022/02/08 02:18:02;;;;;;;1.23;0.93;;;24.20;54.30;;;;;;4989311;28;20285;-60
2022/02/08 02:20:33;;;;;;;2.35;1.02;;;24.30;54.20;;;;;;4990271;28;20198;-61
2022/02/08 02:23:06;;;;;;;1.98;1.00;;;24.30;54.20;;;;;;4986570;28;20268;-61
2022/02/08 02:25:38;;;;;;;2.92;1.13;;;24.30;54.20;;;;;;4989892;28;20240;-60
2022/02/08 02:28:09;;;;;;;1.05;0.90;;;24.30;54.00;;;;;;4989592;28;20198;-58
2022/02/08 02:30:40;;;;;;;0.98;0.90;;;24.40;54.00;;;;;;4990159;28;20197;-47
2022/02/08 02:33:11;;;;;;;1.65;0.90;;;24.40;53.90;;;;;;4989720;28;20288;-49
2022/02/08 02:35:42;;;;;;;1.05;0.95;;;24.40;53.80;;;;;;4989892;28;20684;-61
2022/02/08 02:38:13;;;;;;;3.55;0.90;;;24.40;53.80;;;;;;4987966;28;20202;-57
2022/02/08 02:40:46;;;;;;;1.88;0.95;;;24.40;53.70;;;;;;4989759;28;20206;-55
2022/02/08 02:43:16;;;;;;;1.75;0.88;;;24.40;53.60;;;;;;4988476;28;20589;-60
2022/02/08 02:45:47;;;;;;;1.67;0.70;;;24.40;53.60;;;;;;4990267;28;20201;-61
2022/02/08 02:48:17;;;;;;;1.70;1.00;;;24.50;53.50;;;;;;4989908;28;20200;-58
2022/02/08 02:50:52;;;;;;;1.15;0.85;;;24.50;53.50;;;;;;4987422;28;20193;-60
2022/02/08 02:53:26;;;;;;;2.50;1.10;;;24.50;53.50;;;;;;4988584;28;20221;-59
2022/02/08 02:55:59;;;;;;;1.00;0.80;;;24.50;54.00;;;;;;4989600;28;20312;-61
2022/02/08 02:58:32;;;;;;;1.02;0.90;;;24.50;53.50;;;;;;4988317;28;20255;-56
2022/02/08 03:01:20;;;;;;;1.10;0.73;;;24.50;53.50;;;;;;4987609;28;20644;-50
2022/02/08 03:04:05;;;;;;;1.95;1.10;;;24.50;53.40;;;;;;4988699;28;20324;-60
2022/02/08 03:18:25;;;;;;;1.73;0.98;;;24.60;53.20;;;;;;4988405;28;20240;-53
2022/02/08 03:20:52;;;;;;;1.63;0.80;;;24.60;53.20;;;;;;4988902;28;20669;-56
2022/02/08 03:23:23;;;;;;;1.02;0.80;;;24.60;53.10;;;;;;4989236;28;20595;-61
2022/02/08 03:25:53;;;;;;;2.70;1.30;;;24.60;53.10;;;;;;4989390;28;20197;-51
2022/02/08 03:28:26;;;;;;;2.35;0.88;;;24.60;53.10;;;;;;4989018;28;20189;-58
2022/02/08 03:30:57;;;;;;;2.35;1.10;;;24.60;53.20;;;;;;4988477;28;20197;-53
2022/02/08 03:33:27;;;;;;;1.95;1.00;;;24.60;53.10;;;;;;4987910;28;20740;-59
2022/02/08 03:35:59;;;;;;;1.92;1.00;;;24.60;53.10;;;;;;4988815;28;20741;-54
2022/02/08 03:38:34;;;;;;;2.17;1.17;;;24.60;53.10;;;;;;4988538;28;21053;-44
2022/02/08 03:41:07;;;;;;;4.18;1.15;;;24.60;53.10;;;;;;4989439;28;20193;-55
2022/02/08 03:43:43;;;;;;;2.15;1.15;;;24.60;53.30;;;;;;4986585;28;20229;-54
2022/02/08 03:46:17;;;;;;;2.42;1.13;;;24.60;53.30;;;;;;4988769;28;20197;-59
2022/02/08 03:48:48;;;;;;;2.00;0.90;;;24.60;53.40;;;;;;4988212;28;20216;-53
2022/02/08 03:51:20;;;;;;;1.85;1.05;;;24.60;53.40;;;;;;4988549;28;20599;-53
2022/02/08 03:53:51;;;;;;;2.58;1.20;;;24.60;53.40;;;;;;4988358;28;20583;-42
2022/02/08 03:56:23;;;;;;;3.05;1.20;;;24.60;53.40;;;;;;4987243;28;20736;-59
2022/02/08 03:58:59;;;;;;;1.63;1.00;;;24.60;53.50;;;;;;4987362;28;20935;-59
2022/02/08 04:02:02;;;;;;;1.52;1.02;;;24.60;53.50;;;;;;4986644;28;20481;-51
2022/02/08 04:04:48;;;;;;;1.70;1.10;;;24.60;53.50;;;;;;4987745;28;20245;-60
2022/02/08 04:07:22;;;;;;;2.05;1.00;;;24.60;53.50;;;;;;4988078;28;20202;-52
2022/02/08 04:09:59;;;;;;;4.60;1.27;;;24.60;53.50;;;;;;4988566;28;20232;-57
2022/02/08 04:12:41;;;;;;;2.92;1.30;;;24.60;53.50;;;;;;4987102;28;20202;-59
2022/02/08 04:15:37;;;;;;;2.20;0.98;;;24.60;53.50;;;;;;4987935;28;20193;-56
2022/02/08 04:35:08;;;;;;;1.23;0.90;;;24.60;53.50;;;;;;4979959;28;20305;-61
2022/02/08 04:40:40;;;;;;;3.45;1.13;;;24.60;53.50;;;;;;4992320;28;20208;-53
2022/02/08 04:43:27;;;;;;;2.63;1.20;;;24.60;53.40;;;;;;4991797;28;20225;-60
2022/02/08 04:46:02;;;;;;;3.92;1.40;;;24.60;53.40;;;;;;4991632;28;20260;-56
2022/02/08 04:48:51;;;;;;;2.92;1.20;;;24.50;53.40;;;;;;4991364;28;20739;-54
2022/02/08 04:51:26;;;;;;;3.00;1.00;;;24.60;53.50;;;;;;4991522;28;20268;-60
2022/02/08 04:54:05;;;;;;;2.25;1.08;;;24.50;53.50;;;;;;4991723;28;20217;-60
2022/02/08 04:59:38;;;;;;;3.70;1.42;;;24.50;53.50;;;;;;4991714;28;20237;-58
2022/02/08 05:34:10;;;;;;;3.40;1.00;;;24.50;53.60;;;;;;4959145;28;20221;-53
2022/02/08 05:35:46;;;;;;;1.90;1.17;;;24.50;53.60;;;;;;4992739;28;20208;-52
2022/02/08 05:41:40;;;;;;;2.33;1.10;;;24.50;53.70;;;;;;4973440;28;20555;-57
2022/02/08 05:44:26;;;;;;;2.45;1.10;;;24.50;53.70;;;;;;4972676;28;20272;-53
2022/02/08 05:46:56;;;;;;;2.10;1.30;;;24.50;53.70;;;;;;4981848;28;20193;-53
2022/02/08 05:49:38;;;;;;;2.50;1.30;;;24.50;53.60;;;;;;4991827;28;20197;-47
2022/02/08 05:52:34;;;;;;;1.88;1.00;;;24.40;53.60;;;;;;4991805;28;20740;-50
2022/02/08 05:55:07;;;;;;;3.38;1.40;;;24.40;53.60;;;;;;4976560;28;20194;-50
2022/02/08 05:57:38;;;;;;;3.13;1.20;;;24.40;53.50;;;;;;4972562;28;20280;-58
2022/02/08 06:00:10;;;;;;;2.97;1.27;;;24.40;53.60;;;;;;4972171;28;20224;-55
2022/02/08 06:02:40;;;;;;;3.08;1.27;;;24.40;53.60;;;;;;4976338;28;20213;-51
2022/02/08 06:05:16;;;;;;;2.67;1.20;;;24.40;53.60;;;;;;4989736;28;20317;-59
2022/02/08 06:07:47;;;;;;;1.35;1.15;;;24.40;53.70;;;;;;4990316;28;20222;-58
2022/02/08 06:10:19;;;;;;;2.10;1.20;;;24.40;53.70;;;;;;4990873;28;20645;-53
2022/02/08 06:12:54;;;;;;;1.92;1.27;;;24.40;53.70;;;;;;4990154;28;20272;-54
2022/02/08 06:15:26;;;;;;;2.65;1.30;;;24.40;53.80;;;;;;4989942;28;20198;-54
2022/02/08 06:17:58;;;;;;;2.22;1.35;;;24.40;53.80;;;;;;4990336;28;20193;-55
2022/02/08 06:20:29;;;;;;;4.07;1.65;;;24.40;53.80;;;;;;4988101;28;20197;-60
2022/02/08 06:22:59;;;;;;;2.45;1.23;;;24.40;53.80;;;;;;4990426;28;20630;-54
2022/02/08 06:25:32;;;;;;;3.33;1.25;;;24.40;53.80;;;;;;4990334;28;20221;-47
2022/02/08 06:28:03;;;;;;;1.20;1.10;;;24.40;53.80;;;;;;4990250;28;20198;-53
2022/02/08 06:30:33;;;;;;;4.75;1.58;;;24.40;53.80;;;;;;4987856;28;20216;-59
2022/02/08 06:33:04;;;;;;;3.47;1.40;;;24.40;53.80;;;;;;4990471;28;20279;-57
2022/02/08 06:35:34;;;;;;;3.28;1.52;;;24.40;53.80;;;;;;4990515;28;20264;-57
2022/02/08 06:38:09;;;;;;;2.97;1.65;;;24.40;53.90;;;;;;4990308;28;20202;-50
2022/02/08 06:40:42;;;;;;;3.75;1.85;;;24.40;53.80;;;;;;4990159;28;20279;-54
2022/02/08 06:43:13;;;;;;;3.25;2.17;;;24.40;53.80;;;;;;4990090;28;20308;-56
2022/02/08 06:45:44;;;;;;;3.15;1.85;;;24.40;53.80;;;;;;4989398;28;20647;-60
2022/02/08 06:48:14;;;;;;;2.83;2.20;;;24.40;53.90;;;;;;4989907;28;20205;-57
2022/02/08 06:50:45;;;;;;;4.30;2.20;;;24.40;53.90;;;;;;4989899;28;20201;-57
2022/02/08 06:53:15;;;;;;;3.78;2.13;;;24.30;53.90;;;;;;4989188;28;20577;-57
2022/02/08 06:55:48;;;;;;;4.78;2.00;;;24.30;53.80;;;;;;4989813;28;20241;-59
2022/02/08 06:58:19;;;;;;;3.92;1.85;;;24.30;53.90;;;;;;4988615;28;20248;-43
2022/02/08 07:00:51;;;;;;;3.33;1.98;;;24.30;53.90;;;;;;4989237;28;20193;-51
2022/02/08 07:03:21;;;;;;;3.55;1.63;;;24.30;53.90;;;;;;4987784;28;20276;-54
2022/02/08 07:05:52;;;;;;;4.65;1.92;;;24.30;54.00;;;;;;4989609;28;20229;-59
2022/02/08 07:08:24;;;;;;;3.15;1.70;;;24.30;54.00;;;;;;4989362;28;20250;-53
2022/02/08 07:10:56;;;;;;;2.65;1.75;;;24.30;54.00;;;;;;4989883;28;20624;-45
2022/02/08 07:13:26;;;;;;;3.60;1.95;;;24.30;54.00;;;;;;4988483;28;20221;-50
2022/02/08 07:15:57;;;;;;;4.30;1.85;;;24.30;54.00;;;;;;4989633;28;20189;-52
2022/02/08 07:18:28;;;;;;;3.08;1.63;;;24.30;54.00;;;;;;4989668;28;20256;-51
2022/02/08 07:20:58;;;;;;;4.38;1.90;;;24.30;54.10;;;;;;4989779;28;20649;-51
2022/02/08 07:23:29;;;;;;;2.47;1.70;;;24.30;54.10;;;;;;4989506;28;20283;-57
2022/02/08 07:26:01;;;;;;;1.73;1.30;;;24.30;54.10;;;;;;4989057;28;20272;-53
2022/02/08 07:28:37;;;;;;;3.75;1.80;;;24.30;54.10;;;;;;4989068;28;20253;-53
2022/02/08 07:31:14;;;;;;;2.00;1.67;;;24.30;54.10;;;;;;4989142;28;20691;-58
2022/02/08 07:33:51;;;;;;;2.22;1.50;;;24.30;54.20;;;;;;4987774;28;20318;-54
2022/02/08 07:36:31;;;;;;;3.33;1.80;;;24.20;54.20;;;;;;4989145;28;20232;-58
2022/02/08 07:39:02;;;;;;;2.10;1.70;;;24.20;54.10;;;;;;4988245;28;20209;-60
2022/02/08 07:41:38;;;;;;;3.75;1.75;;;24.20;54.20;;;;;;4989443;28;20276;-59
2022/02/08 07:44:11;;;;;;;2.58;1.30;;;24.20;54.20;;;;;;4989180;28;20286;-60
2022/02/08 07:46:42;;;;;;;2.95;1.60;;;24.20;54.30;;;;;;4988828;28;20244;-55
2022/02/08 07:49:13;;;;;;;4.82;1.70;;;24.20;54.20;;;;;;4989009;28;20193;-59
2022/02/08 07:51:44;;;;;;;2.20;1.48;;;24.20;54.30;;;;;;4988368;28;20727;-54
2022/02/08 07:54:14;;;;;;;2.78;1.55;;;24.20;54.30;;;;;;4988569;28;20217;-60
2022/02/08 07:56:47;;;;;;;5.75;2.20;;;24.20;54.30;;;;;;4989190;28;20641;-43
2022/02/08 07:59:17;;;;;;;8.13;1.95;;;24.20;54.70;;;;;;4988176;28;20661;-45
2022/02/08 08:01:48;;;;;;;11.43;2.20;;;24.10;55.10;;;;;;4990387;28;20251;-45
2022/02/08 08:04:19;;;;;;;10.15;2.60;;;24.10;55.60;;;;;;4983039;28;20284;-44
2022/02/08 08:06:49;;;;;;;7.55;2.03;;;24.00;55.80;;;;;;4974328;28;20198;-53
2022/02/08 08:09:20;;;;;;;7.78;2.33;;;23.90;55.80;;;;;;4988850;28;20649;-44
2022/02/08 08:11:53;;;;;;;11.05;2.78;;;23.80;55.80;;;;;;4992499;28;20245;-53
2022/02/08 08:14:25;;;;;;;6.85;2.15;;;23.80;55.90;;;;;;4992368;28;20226;-43
2022/02/08 08:17:01;;;;;;;8.05;2.17;;;23.80;56.60;;;;;;4972734;28;20206;-49
2022/02/08 08:19:38;;;;;;;6.95;1.70;;;23.80;56.00;;;;;;4972607;28;20198;-48
2022/02/08 08:22:10;;;;;;;8.20;2.28;;;23.70;56.00;;;;;;4974090;28;20293;-53
2022/02/08 08:24:41;;;;;;;5.85;2.22;;;23.70;56.00;;;;;;4974750;28;20268;-55
2022/02/08 08:27:14;;;;;;;9.65;2.35;;;23.70;56.00;;;;;;4982437;28;20273;-53
2022/02/08 08:29:45;;;;;;;4.82;1.85;;;23.70;56.00;;;;;;4991992;28;20293;-55
2022/02/08 08:32:16;;;;;;;5.03;1.83;;;23.70;55.90;;;;;;4988840;28;20213;-57
2022/02/08 08:34:46;;;;;;;4.32;1.67;;;23.70;55.90;;;;;;4991966;28;20221;-54
2022/02/08 08:37:17;;;;;;;5.93;2.25;;;23.70;55.90;;;;;;4991429;28;20253;-52
2022/02/08 08:39:50;;;;;;;5.97;2.13;;;23.70;55.90;;;;;;4991680;28;20198;-46
2022/02/08 08:42:38;;;;;;;7.25;1.90;;;23.70;55.90;;;;;;4992089;28;20194;-53
2022/02/08 08:50:55;;;;;;;4.32;1.92;;;23.70;55.80;;;;;;4959501;28;20209;-49
2022/02/08 08:53:26;;;;;;;4.63;1.85;;;23.70;55.80;;;;;;4989275;28;20329;-61
2022/02/08 08:55:57;;;;;;;4.43;1.77;;;23.70;55.70;;;;;;4991475;28;20194;-54
2022/02/08 08:58:31;;;;;;;4.90;1.40;;;23.60;55.70;;;;;;4991322;28;20201;-51
2022/02/08 09:01:02;;;;;;;3.22;1.77;;;23.60;55.70;;;;;;4992034;28;20210;-45
2022/02/08 09:03:32;;;;;;;3.22;1.70;;;23.60;55.70;;;;;;4990605;28;20275;-49
2022/02/08 09:06:03;;;;;;;5.03;1.80;;;23.60;55.70;;;;;;4991561;28;20221;-46
2022/02/08 09:08:35;;;;;;;5.63;2.00;;;23.60;55.70;;;;;;4991562;28;20269;-47
2022/02/08 09:11:12;;;;;;;4.60;1.88;;;23.60;55.70;;;;;;4990866;28;20237;-61
2022/02/08 09:13:50;;;;;;;6.35;2.03;;;23.60;55.70;;;;;;4990546;28;20217;-50
2022/02/08 09:16:27;;;;;;;5.80;2.00;;;23.60;55.70;;;;;;4990947;28;20279;-61
2022/02/08 09:24:58;;;;;;;3.90;1.63;;;23.60;55.60;;;;;;5099735;27;20556;-57
2022/02/08 09:30:15;;;;;;;2.58;1.52;;;23.60;55.50;;;;;;5104745;28;20196;-51
2022/02/08 09:32:49;;;;;;;3.25;1.58;;;23.60;55.40;;;;;;5106085;28;20249;-52
2022/02/08 09:35:20;;;;;;;2.38;1.58;;;23.60;55.40;;;;;;5105944;28;20657;-46
2022/02/08 09:37:51;;;;;;;3.63;1.80;;;23.60;55.40;;;;;;5104250;28;20251;-61
2022/02/08 09:40:24;;;;;;;4.80;2.03;;;23.60;55.40;;;;;;5103232;28;20269;-59
2022/02/08 09:42:57;;;;;;;3.03;1.60;;;23.60;55.40;;;;;;5105161;28;20290;-57
2022/02/08 09:45:30;;;;;;;4.25;1.98;;;23.50;55.40;;;;;;5105887;28;20189;-54
2022/02/08 09:48:06;;;;;;;3.38;1.80;;;23.50;55.40;;;;;;5105502;28;20204;-60
2022/02/08 09:50:38;;;;;;;3.33;1.60;;;23.50;55.40;;;;;;5105740;28;20193;-60
2022/02/08 09:53:13;;;;;;;4.85;1.83;;;23.50;55.40;;;;;;5105911;28;20220;-57
2022/02/08 09:55:45;;;;;;;3.05;1.52;;;23.50;55.40;;;;;;5104955;28;20242;-56
2022/02/08 09:58:16;;;;;;;3.90;2.05;;;23.50;55.40;;;;;;5104585;28;20202;-56
2022/02/08 10:00:46;;;;;;;2.70;1.45;;;23.50;55.40;;;;;;5104534;28;20202;-45
2022/02/08 10:03:18;;;;;;;4.18;1.95;;;23.50;55.40;;;;;;5101688;28;20229;-57
2022/02/08 10:05:53;;;;;;;3.10;1.80;;;23.50;55.40;;;;;;5104089;28;20200;-58
2022/02/08 10:08:24;;;;;;;2.38;1.45;;;23.50;55.40;;;;;;5103642;28;20246;-57
2022/02/08 10:10:57;;;;;;;4.05;1.58;;;23.50;55.40;;;;;;5102615;28;20193;-60
2022/02/08 10:13:45;;;;;;;2.95;1.55;;;23.50;55.40;;;;;;5104648;28;20213;-49
2022/02/08 10:19:44;;;;;;;2.25;1.48;;;23.50;55.30;;;;;;5104104;28;20208;-56
2022/02/08 10:22:13;;;;;;;1.98;1.60;;;23.50;55.30;;;;;;5104765;28;20194;-57
2022/02/08 10:24:52;;;;;;;3.78;1.70;;;23.50;55.30;;;;;;5105511;28;20190;-60
2022/02/08 10:27:30;;;;;;;3.35;1.80;;;23.40;55.20;;;;;;5101974;28;20202;-49
2022/02/08 10:30:28;;;;;;;4.40;1.90;;;23.50;55.30;;;;;;5105019;28;20312;-60
2022/02/08 10:38:45;;;;;;;3.58;1.80;;;23.40;55.30;;;;;;5026805;28;20196;-47
2022/02/08 10:41:17;;;;;;;2.80;1.60;;;23.40;55.20;;;;;;5078123;28;20265;-53
2022/02/08 10:43:59;;;;;;;3.22;1.55;;;23.40;55.30;;;;;;5087218;28;20311;-60
2022/02/08 10:46:30;;;;;;;2.35;1.40;;;23.30;55.30;;;;;;5090526;28;20653;-54
2022/02/08 10:49:06;;;;;;;2.13;1.40;;;23.30;55.30;;;;;;5091423;28;20249;-51
2022/02/08 10:51:43;;;;;;;3.20;1.60;;;23.30;55.30;;;;;;5090276;28;20247;-53
2022/02/08 10:54:18;;;;;;;3.13;1.67;;;23.30;55.30;;;;;;5091274;28;20249;-58
2022/02/08 10:56:55;;;;;;;2.65;1.67;;;23.30;55.30;;;;;;5088830;28;20270;-55
2022/02/08 10:59:32;;;;;;;2.13;1.40;;;23.30;55.30;;;;;;5090996;28;20215;-53
2022/02/08 11:02:08;;;;;;;2.60;1.58;;;23.30;55.30;;;;;;5090402;28;20281;-56
2022/02/08 11:04:49;;;;;;;2.95;1.77;;;23.30;55.30;;;;;;5090796;28;20217;-59
2022/02/08 11:07:44;;;;;;;2.17;1.42;;;23.30;55.20;;;;;;5084992;28;20198;-52
2022/02/08 11:10:28;;;;;;;2.33;1.40;;;23.30;55.20;;;;;;5053131;28;20199;-57
2022/02/08 11:13:11;;;;;;;2.55;1.40;;;23.30;55.20;;;;;;5057957;28;20838;-44
2022/02/08 11:15:48;;;;;;;2.00;1.63;;;23.30;55.20;;;;;;5060178;28;20227;-56
2022/02/08 11:18:32;;;;;;;2.40;1.40;;;23.30;55.20;;;;;;5061946;28;20209;-59
2022/02/08 11:21:19;;;;;;;2.80;1.60;;;23.20;55.10;;;;;;5060988;28;20237;-52
2022/02/08 11:24:00;;;;;;;2.65;1.35;;;23.20;55.10;;;;;;5060954;28;20499;-56
2022/02/08 11:26:34;;;;;;;3.10;1.50;;;23.20;55.20;;;;;;5061663;28;20195;-58
2022/02/08 11:29:16;;;;;;;2.17;1.30;;;23.20;55.10;;;;;;5060594;28;20199;-52
2022/02/08 11:32:00;;;;;;;1.33;1.15;;;23.20;55.20;;;;;;5060770;28;20202;-56
2022/02/08 11:46:12;;;;;;;3.03;1.60;;;23.10;55.10;;;;;;5059909;28;20602;-59
2022/02/08 11:49:13;;;;;;;2.88;1.33;;;23.10;55.10;;;;;;5060444;28;20650;-54
2022/02/08 11:51:56;;;;;;;2.08;1.40;;;23.10;55.80;;;;;;5068417;28;20201;-59
2022/02/08 11:54:39;;;;;;;3.45;1.42;;;23.00;55.10;;;;;;5070453;28;20611;-53
2022/02/08 12:00:12;;;;;;;2.60;1.33;;;23.00;55.10;;;;;;5036863;28;20391;-51
2022/02/08 12:03:13;;;;;;;2.60;1.80;;;23.00;55.10;;;;;;5070262;28;20222;-50
2022/02/08 12:05:59;;;;;;;3.10;1.55;;;23.00;55.10;;;;;;5070586;28;20198;-59
2022/02/08 12:08:30;;;;;;;2.30;1.40;;;23.00;55.70;;;;;;5069842;28;20187;-58
2022/02/08 12:11:24;;;;;;;3.33;1.60;;;22.90;55.10;;;;;;5070736;28;20278;-58
2022/02/08 12:27:03;;;;;;;1.92;1.10;;;22.90;55.10;;;;;;5070905;28;20218;-56
2022/02/08 12:31:34;;;;;;;2.55;1.55;;;22.80;55.20;;;;;;4974200;28;20201;-43
2022/02/08 12:34:21;;;;;;;2.60;1.40;;;22.80;55.20;;;;;;5060581;28;20227;-49
2022/02/08 12:54:49;;;;;;;2.83;1.30;;;22.70;55.20;;;;;;5069321;28;20215;-56
2022/02/08 12:57:37;;;;;;;2.70;1.27;;;22.60;55.20;;;;;;5069344;28;20207;-57
2022/02/08 13:00:23;;;;;;;1.98;1.20;;;22.70;55.30;;;;;;5069977;28;20210;-59
2022/02/08 13:06:25;;;;;;;1.95;1.27;;;22.60;55.30;;;;;;5069767;28;20234;-43
2022/02/08 14:02:05;;;;;;;3.22;1.23;;;22.30;55.30;;;;;;5061105;28;20604;-51
2022/02/08 14:07:35;;;;;;;1.80;1.08;;;22.30;55.40;;;;;;4994239;28;20656;-58
2022/02/08 14:10:18;;;;;;;2.22;1.00;;;22.20;55.40;;;;;;5070513;28;20191;-49
2022/02/08 14:18:41;;;;;;;1.52;1.13;;;22.20;55.40;;;;;;5073064;28;20720;-50
2022/02/08 14:21:19;;;;;;;1.65;1.27;;;22.20;55.40;;;;;;5073018;28;20194;-51
2022/02/08 14:24:01;;;;;;;3.15;1.23;;;22.20;55.40;;;;;;5072384;28;21014;-43
2022/02/08 14:29:38;;;;;;;1.70;1.05;;;22.10;55.40;;;;;;5072883;28;20198;-47
2022/02/08 14:32:27;;;;;;;1.50;1.00;;;22.10;55.40;;;;;;5072108;28;20203;-54
2022/02/08 14:35:28;;;;;;;1.70;1.10;;;22.10;55.40;;;;;;5072322;28;20195;-55
2022/02/08 15:06:45;;;;;;;1.75;1.17;;;22.00;55.50;;;;;;5067227;28;20233;-44
2022/02/08 15:09:23;;;;;;;2.13;0.90;;;22.00;55.50;;;;;;5070418;28;20351;-43
2022/02/08 15:12:11;;;;;;;2.20;1.05;;;22.00;55.50;;;;;;5087074;28;20228;-54
2022/02/08 15:14:48;;;;;;;1.90;1.20;;;21.90;55.50;;;;;;5087259;28;20764;-51
2022/02/08 15:17:19;;;;;;;1.20;1.10;;;21.90;55.50;;;;;;5087117;28;20216;-54
2022/02/08 15:19:51;;;;;;;1.67;1.20;;;21.90;55.50;;;;;;5086835;28;20251;-53
2022/02/08 15:22:21;;;;;;;2.10;1.40;;;21.90;55.50;;;;;;5086958;28;20202;-56
2022/02/08 15:24:54;;;;;;;3.42;1.30;;;21.90;55.50;;;;;;5086057;28;20194;-49
2022/02/08 15:27:27;;;;;;;2.03;1.00;;;21.90;55.50;;;;;;5086736;28;20248;-46
2022/02/08 15:29:57;;;;;;;1.15;0.93;;;21.90;55.60;;;;;;5086203;28;20247;-55
2022/02/08 15:32:28;;;;;;;1.30;0.75;;;21.90;55.60;;;;;;5071013;28;20275;-49
2022/02/08 15:34:58;;;;;;;1.60;1.10;;;21.90;55.60;;;;;;5066439;28;20620;-55
2022/02/08 15:37:31;;;;;;;1.00;0.90;;;21.90;55.60;;;;;;5066526;28;20195;-48
2022/02/08 15:40:06;;;;;;;1.55;0.82;;;21.80;55.50;;;;;;5074779;28;20182;-51
2022/02/08 15:42:39;;;;;;;1.08;0.82;;;21.80;55.60;;;;;;5087148;28;20284;-46
2022/02/08 15:45:17;;;;;;;1.38;0.80;;;21.80;56.10;;;;;;5086568;28;20194;-54
2022/02/08 15:47:48;;;;;;;1.38;1.17;;;21.80;55.50;;;;;;5086580;28;20190;-57
2022/02/08 15:50:25;;;;;;;1.45;1.00;;;21.80;55.60;;;;;;5085904;28;20198;-52
2022/02/08 15:53:11;;;;;;;1.80;0.98;;;21.80;55.50;;;;;;5086103;28;20228;-53
2022/02/08 15:55:53;;;;;;;1.88;1.17;;;21.80;55.50;;;;;;5072474;28;20202;-50
2022/02/08 16:00:03;;;;;;;1.60;0.82;;;21.80;55.60;;;;;;5065942;28;20286;-51
2022/02/08 16:01:26;;;;;;;1.15;0.93;;;21.80;55.50;;;;;;5065786;28;20564;-49
2022/02/08 16:09:33;;;;;;;1.42;0.90;;;21.70;55.50;;;;;;5069940;28;20440;-55
2022/02/08 16:12:30;;;;;;;1.40;1.00;;;21.70;55.60;;;;;;5052358;28;20227;-48
2022/02/08 16:15:20;;;;;;;2.05;1.17;;;21.70;55.60;;;;;;5052300;28;20199;-56
2022/02/08 16:20:59;;;;;;;1.95;1.08;;;21.70;55.60;;;;;;5065276;28;20594;-46
2022/02/08 16:23:59;;;;;;;1.95;1.00;;;21.70;55.60;;;;;;5072248;28;20787;-51
2022/02/08 16:26:49;;;;;;;1.10;0.98;;;21.70;55.60;;;;;;5070170;28;20203;-59
2022/02/08 16:29:51;;;;;;;1.02;0.90;;;21.70;55.60;;;;;;5072120;28;20205;-40
2022/02/08 16:33:00;;;;;;;1.13;1.00;;;21.70;55.60;;;;;;5058167;28;20250;-51
2022/02/08 16:47:17;;;;;;;0.90;0.80;;;21.60;55.60;;;;;;5045063;28;20191;-53
2022/02/08 16:53:02;;;;;;;1.30;0.90;;;21.60;55.60;;;;;;5045428;28;20675;-53
2022/02/08 16:58:27;;;;;;;0.82;0.70;;;21.60;55.60;;;;;;5068787;28;20198;-55
2022/02/08 17:01:09;;;;;;;1.02;0.90;;;21.50;55.70;;;;;;5069349;28;20195;-56
2022/02/08 17:03:45;;;;;;;0.80;0.80;;;21.50;55.70;;;;;;5051360;28;20703;-58
2022/02/08 17:06:17;;;;;;;0.98;0.80;;;21.50;55.70;;;;;;5051161;28;20203;-51
2022/02/08 17:08:51;;;;;;;0.93;0.68;;;21.50;55.70;;;;;;5051151;28;20204;-56
2022/02/08 17:11:31;;;;;;;0.80;0.80;;;21.50;55.70;;;;;;5065577;28;20611;-59
2022/02/08 17:14:22;;;;;;;0.70;0.70;;;21.50;55.70;;;;;;5070249;28;20229;-59
2022/02/08 17:17:05;;;;;;;1.25;0.80;;;21.50;55.70;;;;;;5071192;28;20223;-58
2022/02/08 17:34:21;;;;;;;1.08;0.90;;;21.50;55.70;;;;;;5051312;28;20199;-58
2022/02/08 17:45:42;;;;;;;1.60;1.10;;;21.40;55.80;;;;;;5007627;28;20200;-53
2022/02/08 17:48:12;;;;;;;0.98;0.70;;;21.40;55.80;;;;;;5008306;28;20243;-56
2022/02/08 17:50:45;;;;;;;0.82;0.70;;;21.30;55.80;;;;;;5037077;28;20257;-53
2022/02/08 17:53:17;;;;;;;0.80;0.70;;;21.40;55.90;;;;;;5050365;28;20338;-49
2022/02/08 17:55:48;;;;;;;1.10;0.88;;;21.30;55.80;;;;;;5057594;28;20880;-59
2022/02/08 17:58:20;;;;;;;0.82;0.73;;;21.30;55.80;;;;;;5070277;28;20198;-51
2022/02/08 18:00:50;;;;;;;1.33;0.80;;;21.30;55.80;;;;;;5070552;28;20592;-57
2022/02/08 18:03:21;;;;;;;1.42;0.88;;;21.30;55.80;;;;;;5068138;28;20215;-46
2022/02/08 18:05:52;;;;;;;1.85;0.77;;;21.30;55.80;;;;;;5069416;28;20658;-54
2022/02/08 18:08:25;;;;;;;1.58;0.80;;;21.30;55.80;;;;;;5070357;28;20194;-50
2022/02/08 18:10:57;;;;;;;0.93;0.82;;;21.30;55.80;;;;;;5061817;28;20566;-60
2022/02/08 18:13:30;;;;;;;1.33;0.88;;;21.30;55.80;;;;;;5050456;28;20220;-54
2022/02/08 18:16:02;;;;;;;0.70;0.70;;;21.30;55.80;;;;;;5049908;28;20196;-52
2022/02/08 18:18:38;;;;;;;0.90;0.70;;;21.30;55.80;;;;;;5062795;28;20275;-51